sensor_id;sensor_type;location;lat;lon;timestamp;P1;durP1;ratioP1;P2;durP2;ratioP2
37445;SDS011;23307;51.136;14.942;2023-04-12T00:00:31;3.33;;;1.90;;
37445;SDS011;23307;51.136;14.942;2023-04-12T00:02:56;3.10;;;2.00;;
37445;SDS011;23307;51.136;14.942;2023-04-12T00:05:23;3.07;;;2.03;;
37445;SDS011;23307;51.136;14.942;2023-04-12T00:07:51;1.90;;;1.73;;
37445;SDS011;23307;51.136;14.942;2023-04-12T00:10:20;3.03;;;2.00;;
37445;SDS011;23307;51.136;14.942;2023-04-12T00:12:46;2.80;;;2.10;;
37445;SDS011;23307;51.136;14.942;2023-04-12T00:15:11;3.00;;;1.87;;
37445;SDS011;23307;51.136;14.942;2023-04-12T00:17:38;2.93;;;1.97;;
37445;SDS011;23307;51.136;14.942;2023-04-12T00:20:04;5.73;;;2.07;;
37445;SDS011;23307;51.136;14.942;2023-04-12T00:22:37;4.17;;;2.20;;
37445;SDS011;23307;51.136;14.942;2023-04-12T00:25:03;2.80;;;2.20;;
37445;SDS011;23307;51.136;14.942;2023-04-12T00:27:29;4.53;;;2.07;;
37445;SDS011;23307;51.136;14.942;2023-04-12T00:29:55;3.63;;;1.90;;
37445;SDS011;23307;51.136;14.942;2023-04-12T00:32:20;2.30;;;1.60;;
37445;SDS011;23307;51.136;14.942;2023-04-12T00:34:46;3.33;;;2.20;;
37445;SDS011;23307;51.136;14.942;2023-04-12T00:37:11;4.07;;;2.27;;
37445;SDS011;23307;51.136;14.942;2023-04-12T00:39:37;3.60;;;2.10;;
37445;SDS011;23307;51.136;14.942;2023-04-12T00:42:03;3.00;;;2.10;;
37445;SDS011;23307;51.136;14.942;2023-04-12T00:44:29;4.13;;;1.80;;
37445;SDS011;23307;51.136;14.942;2023-04-12T00:46:56;6.33;;;2.03;;
37445;SDS011;23307;51.136;14.942;2023-04-12T00:49:22;2.23;;;1.97;;
37445;SDS011;23307;51.136;14.942;2023-04-12T00:51:48;5.27;;;1.97;;
37445;SDS011;23307;51.136;14.942;2023-04-12T00:54:15;2.50;;;2.00;;
37445;SDS011;23307;51.136;14.942;2023-04-12T00:56:42;5.37;;;2.20;;
37445;SDS011;23307;51.136;14.942;2023-04-12T00:59:10;2.13;;;1.83;;
37445;SDS011;23307;51.136;14.942;2023-04-12T01:01:35;2.83;;;1.80;;
37445;SDS011;23307;51.136;14.942;2023-04-12T01:04:02;4.87;;;1.90;;
37445;SDS011;23307;51.136;14.942;2023-04-12T01:06:35;4.97;;;2.10;;
37445;SDS011;23307;51.136;14.942;2023-04-12T01:12:30;2.53;;;1.60;;
37445;SDS011;23307;51.136;14.942;2023-04-12T01:15:08;3.73;;;1.80;;
37445;SDS011;23307;51.136;14.942;2023-04-12T01:17:54;3.27;;;1.93;;
37445;SDS011;23307;51.136;14.942;2023-04-12T01:20:24;3.63;;;1.70;;
37445;SDS011;23307;51.136;14.942;2023-04-12T01:23:14;4.03;;;1.90;;
37445;SDS011;23307;51.136;14.942;2023-04-12T01:26:07;3.20;;;1.63;;
37445;SDS011;23307;51.136;14.942;2023-04-12T01:28:56;4.53;;;1.77;;
37445;SDS011;23307;51.136;14.942;2023-04-12T01:31:23;2.90;;;1.57;;
37445;SDS011;23307;51.136;14.942;2023-04-12T01:33:50;2.57;;;1.60;;
37445;SDS011;23307;51.136;14.942;2023-04-12T01:36:17;3.40;;;1.67;;
37445;SDS011;23307;51.136;14.942;2023-04-12T01:38:46;3.17;;;1.50;;
37445;SDS011;23307;51.136;14.942;2023-04-12T01:41:13;2.90;;;1.53;;
37445;SDS011;23307;51.136;14.942;2023-04-12T01:43:43;2.17;;;1.40;;
37445;SDS011;23307;51.136;14.942;2023-04-12T01:46:13;2.87;;;1.50;;
37445;SDS011;23307;51.136;14.942;2023-04-12T01:48:40;2.60;;;1.53;;
37445;SDS011;23307;51.136;14.942;2023-04-12T01:51:14;5.07;;;1.53;;
37445;SDS011;23307;51.136;14.942;2023-04-12T01:54:02;3.77;;;1.70;;
37445;SDS011;23307;51.136;14.942;2023-04-12T01:56:35;2.07;;;1.43;;
37445;SDS011;23307;51.136;14.942;2023-04-12T01:59:03;2.27;;;1.70;;
37445;SDS011;23307;51.136;14.942;2023-04-12T02:01:30;3.47;;;1.97;;
37445;SDS011;23307;51.136;14.942;2023-04-12T02:03:56;3.93;;;2.00;;
37445;SDS011;23307;51.136;14.942;2023-04-12T02:06:24;2.57;;;1.80;;
37445;SDS011;23307;51.136;14.942;2023-04-12T02:08:55;4.37;;;1.90;;
37445;SDS011;23307;51.136;14.942;2023-04-12T02:11:22;3.53;;;1.93;;
37445;SDS011;23307;51.136;14.942;2023-04-12T02:13:48;2.27;;;2.00;;
37445;SDS011;23307;51.136;14.942;2023-04-12T02:16:13;3.87;;;2.10;;
37445;SDS011;23307;51.136;14.942;2023-04-12T02:18:39;4.33;;;2.13;;
37445;SDS011;23307;51.136;14.942;2023-04-12T02:21:06;3.87;;;2.20;;
37445;SDS011;23307;51.136;14.942;2023-04-12T02:23:31;2.87;;;2.13;;
37445;SDS011;23307;51.136;14.942;2023-04-12T02:25:57;4.83;;;2.33;;
37445;SDS011;23307;51.136;14.942;2023-04-12T02:28:22;3.23;;;2.20;;
37445;SDS011;23307;51.136;14.942;2023-04-12T02:30:48;2.60;;;2.30;;
37445;SDS011;23307;51.136;14.942;2023-04-12T02:33:17;4.00;;;1.83;;
37445;SDS011;23307;51.136;14.942;2023-04-12T02:35:45;4.10;;;2.17;;
37445;SDS011;23307;51.136;14.942;2023-04-12T02:38:11;4.13;;;2.20;;
37445;SDS011;23307;51.136;14.942;2023-04-12T02:40:37;2.53;;;2.13;;
37445;SDS011;23307;51.136;14.942;2023-04-12T02:43:07;3.50;;;2.40;;
37445;SDS011;23307;51.136;14.942;2023-04-12T02:45:33;6.03;;;2.63;;
37445;SDS011;23307;51.136;14.942;2023-04-12T02:47:58;5.07;;;2.70;;
37445;SDS011;23307;51.136;14.942;2023-04-12T02:50:24;3.70;;;2.30;;
37445;SDS011;23307;51.136;14.942;2023-04-12T02:52:49;5.07;;;3.10;;
37445;SDS011;23307;51.136;14.942;2023-04-12T02:55:15;4.97;;;3.00;;
37445;SDS011;23307;51.136;14.942;2023-04-12T02:57:42;3.43;;;2.93;;
37445;SDS011;23307;51.136;14.942;2023-04-12T03:00:09;5.63;;;3.07;;
37445;SDS011;23307;51.136;14.942;2023-04-12T03:02:36;5.57;;;3.50;;
37445;SDS011;23307;51.136;14.942;2023-04-12T03:05:01;6.13;;;3.30;;
37445;SDS011;23307;51.136;14.942;2023-04-12T03:07:29;5.20;;;3.13;;
37445;SDS011;23307;51.136;14.942;2023-04-12T03:09:55;3.87;;;3.13;;
37445;SDS011;23307;51.136;14.942;2023-04-12T03:12:21;3.97;;;3.20;;
37445;SDS011;23307;51.136;14.942;2023-04-12T03:14:47;4.97;;;3.13;;
37445;SDS011;23307;51.136;14.942;2023-04-12T03:17:12;4.47;;;2.83;;
37445;SDS011;23307;51.136;14.942;2023-04-12T03:19:38;4.97;;;3.43;;
37445;SDS011;23307;51.136;14.942;2023-04-12T03:22:04;3.80;;;2.70;;
37445;SDS011;23307;51.136;14.942;2023-04-12T03:24:30;5.70;;;3.10;;
37445;SDS011;23307;51.136;14.942;2023-04-12T03:26:58;5.60;;;3.10;;
37445;SDS011;23307;51.136;14.942;2023-04-12T03:29:24;4.50;;;3.40;;
37445;SDS011;23307;51.136;14.942;2023-04-12T03:31:50;4.57;;;3.00;;
37445;SDS011;23307;51.136;14.942;2023-04-12T03:34:15;4.33;;;3.00;;
37445;SDS011;23307;51.136;14.942;2023-04-12T03:36:41;5.70;;;3.50;;
37445;SDS011;23307;51.136;14.942;2023-04-12T03:39:06;3.30;;;3.00;;
37445;SDS011;23307;51.136;14.942;2023-04-12T03:41:32;4.13;;;3.00;;
37445;SDS011;23307;51.136;14.942;2023-04-12T03:43:57;4.83;;;3.30;;
37445;SDS011;23307;51.136;14.942;2023-04-12T03:46:23;4.53;;;3.30;;
37445;SDS011;23307;51.136;14.942;2023-04-12T03:48:49;5.57;;;3.30;;
37445;SDS011;23307;51.136;14.942;2023-04-12T03:51:15;4.63;;;3.77;;
37445;SDS011;23307;51.136;14.942;2023-04-12T03:53:41;11.57;;;8.17;;
37445;SDS011;23307;51.136;14.942;2023-04-12T03:56:07;8.43;;;6.90;;
37445;SDS011;23307;51.136;14.942;2023-04-12T03:58:33;15.67;;;12.40;;
37445;SDS011;23307;51.136;14.942;2023-04-12T04:01:03;7.33;;;5.10;;
37445;SDS011;23307;51.136;14.942;2023-04-12T04:03:32;4.03;;;2.87;;
37445;SDS011;23307;51.136;14.942;2023-04-12T04:05:59;4.47;;;2.73;;
37445;SDS011;23307;51.136;14.942;2023-04-12T04:08:25;4.10;;;2.90;;
37445;SDS011;23307;51.136;14.942;2023-04-12T04:10:52;4.23;;;3.83;;
37445;SDS011;23307;51.136;14.942;2023-04-12T04:13:18;5.70;;;4.43;;
37445;SDS011;23307;51.136;14.942;2023-04-12T04:15:43;4.70;;;3.30;;
37445;SDS011;23307;51.136;14.942;2023-04-12T04:18:09;3.20;;;2.87;;
37445;SDS011;23307;51.136;14.942;2023-04-12T04:20:34;5.10;;;3.13;;
37445;SDS011;23307;51.136;14.942;2023-04-12T04:23:00;4.47;;;3.47;;
37445;SDS011;23307;51.136;14.942;2023-04-12T04:25:25;6.70;;;3.30;;
37445;SDS011;23307;51.136;14.942;2023-04-12T04:27:53;5.97;;;3.20;;
37445;SDS011;23307;51.136;14.942;2023-04-12T04:30:23;5.70;;;3.20;;
37445;SDS011;23307;51.136;14.942;2023-04-12T04:32:50;4.87;;;3.20;;
37445;SDS011;23307;51.136;14.942;2023-04-12T04:35:16;4.10;;;3.00;;
37445;SDS011;23307;51.136;14.942;2023-04-12T04:37:41;4.80;;;3.00;;
37445;SDS011;23307;51.136;14.942;2023-04-12T04:40:07;4.73;;;3.17;;
37445;SDS011;23307;51.136;14.942;2023-04-12T04:42:33;6.93;;;3.50;;
37445;SDS011;23307;51.136;14.942;2023-04-12T04:44:59;8.13;;;3.60;;
37445;SDS011;23307;51.136;14.942;2023-04-12T04:47:26;7.30;;;3.40;;
37445;SDS011;23307;51.136;14.942;2023-04-12T04:49:54;5.17;;;3.37;;
37445;SDS011;23307;51.136;14.942;2023-04-12T04:52:21;6.37;;;3.17;;
37445;SDS011;23307;51.136;14.942;2023-04-12T04:54:47;4.90;;;3.57;;
37445;SDS011;23307;51.136;14.942;2023-04-12T04:57:12;5.30;;;3.60;;
37445;SDS011;23307;51.136;14.942;2023-04-12T04:59:38;6.40;;;3.53;;
37445;SDS011;23307;51.136;14.942;2023-04-12T05:02:04;5.07;;;3.50;;
37445;SDS011;23307;51.136;14.942;2023-04-12T05:04:29;4.57;;;3.53;;
37445;SDS011;23307;51.136;14.942;2023-04-12T05:06:55;5.57;;;3.50;;
37445;SDS011;23307;51.136;14.942;2023-04-12T05:09:20;4.90;;;3.33;;
37445;SDS011;23307;51.136;14.942;2023-04-12T05:11:46;4.93;;;3.43;;
37445;SDS011;23307;51.136;14.942;2023-04-12T05:14:11;4.63;;;3.27;;
37445;SDS011;23307;51.136;14.942;2023-04-12T05:16:37;5.07;;;3.50;;
37445;SDS011;23307;51.136;14.942;2023-04-12T05:19:02;3.87;;;3.43;;
37445;SDS011;23307;51.136;14.942;2023-04-12T05:21:28;4.97;;;3.27;;
37445;SDS011;23307;51.136;14.942;2023-04-12T05:23:53;5.00;;;3.00;;
37445;SDS011;23307;51.136;14.942;2023-04-12T05:26:19;6.10;;;3.83;;
37445;SDS011;23307;51.136;14.942;2023-04-12T05:28:45;6.23;;;3.53;;
37445;SDS011;23307;51.136;14.942;2023-04-12T05:31:11;6.20;;;3.20;;
37445;SDS011;23307;51.136;14.942;2023-04-12T05:33:36;4.40;;;2.77;;
37445;SDS011;23307;51.136;14.942;2023-04-12T05:36:02;8.33;;;3.70;;
37445;SDS011;23307;51.136;14.942;2023-04-12T05:38:28;5.30;;;3.37;;
37445;SDS011;23307;51.136;14.942;2023-04-12T05:40:54;6.30;;;3.03;;
37445;SDS011;23307;51.136;14.942;2023-04-12T05:43:19;6.40;;;3.23;;
37445;SDS011;23307;51.136;14.942;2023-04-12T05:45:44;6.13;;;3.90;;
37445;SDS011;23307;51.136;14.942;2023-04-12T05:48:10;4.97;;;3.47;;
37445;SDS011;23307;51.136;14.942;2023-04-12T05:50:36;4.77;;;3.33;;
37445;SDS011;23307;51.136;14.942;2023-04-12T05:53:01;5.73;;;2.93;;
37445;SDS011;23307;51.136;14.942;2023-04-12T05:55:27;4.03;;;3.20;;
37445;SDS011;23307;51.136;14.942;2023-04-12T05:57:53;4.33;;;3.30;;
37445;SDS011;23307;51.136;14.942;2023-04-12T06:00:19;7.57;;;3.93;;
37445;SDS011;23307;51.136;14.942;2023-04-12T06:02:45;7.80;;;3.93;;
37445;SDS011;23307;51.136;14.942;2023-04-12T06:05:12;5.80;;;3.03;;
37445;SDS011;23307;51.136;14.942;2023-04-12T06:07:38;7.77;;;3.33;;
37445;SDS011;23307;51.136;14.942;2023-04-12T06:10:06;5.67;;;2.70;;
37445;SDS011;23307;51.136;14.942;2023-04-12T06:12:32;3.53;;;2.60;;
37445;SDS011;23307;51.136;14.942;2023-04-12T06:14:57;4.17;;;3.30;;
37445;SDS011;23307;51.136;14.942;2023-04-12T06:17:23;5.13;;;2.70;;
37445;SDS011;23307;51.136;14.942;2023-04-12T06:19:49;5.67;;;3.10;;
37445;SDS011;23307;51.136;14.942;2023-04-12T06:22:14;6.07;;;2.70;;
37445;SDS011;23307;51.136;14.942;2023-04-12T06:24:40;4.37;;;2.90;;
37445;SDS011;23307;51.136;14.942;2023-04-12T06:27:05;4.27;;;2.53;;
37445;SDS011;23307;51.136;14.942;2023-04-12T06:29:31;3.40;;;2.87;;
37445;SDS011;23307;51.136;14.942;2023-04-12T06:31:56;5.17;;;2.80;;
37445;SDS011;23307;51.136;14.942;2023-04-12T06:34:22;2.70;;;2.33;;
37445;SDS011;23307;51.136;14.942;2023-04-12T06:36:47;5.20;;;3.10;;
37445;SDS011;23307;51.136;14.942;2023-04-12T06:39:13;4.50;;;3.17;;
37445;SDS011;23307;51.136;14.942;2023-04-12T06:41:40;4.63;;;3.03;;
37445;SDS011;23307;51.136;14.942;2023-04-12T06:44:08;7.27;;;3.00;;
37445;SDS011;23307;51.136;14.942;2023-04-12T06:46:33;10.20;;;3.30;;
37445;SDS011;23307;51.136;14.942;2023-04-12T06:48:59;6.33;;;3.37;;
37445;SDS011;23307;51.136;14.942;2023-04-12T06:51:25;4.60;;;3.07;;
37445;SDS011;23307;51.136;14.942;2023-04-12T06:53:51;5.03;;;3.60;;
37445;SDS011;23307;51.136;14.942;2023-04-12T06:56:17;6.03;;;3.53;;
37445;SDS011;23307;51.136;14.942;2023-04-12T06:58:43;4.47;;;3.53;;
37445;SDS011;23307;51.136;14.942;2023-04-12T07:01:09;5.40;;;3.40;;
37445;SDS011;23307;51.136;14.942;2023-04-12T07:03:34;5.83;;;3.27;;
37445;SDS011;23307;51.136;14.942;2023-04-12T07:06:00;6.73;;;3.30;;
37445;SDS011;23307;51.136;14.942;2023-04-12T07:08:33;3.50;;;2.93;;
37445;SDS011;23307;51.136;14.942;2023-04-12T07:11:00;6.60;;;2.70;;
37445;SDS011;23307;51.136;14.942;2023-04-12T07:13:26;4.53;;;2.97;;
37445;SDS011;23307;51.136;14.942;2023-04-12T07:15:51;7.90;;;3.07;;
37445;SDS011;23307;51.136;14.942;2023-04-12T07:18:18;4.17;;;3.20;;
37445;SDS011;23307;51.136;14.942;2023-04-12T07:20:47;7.33;;;3.10;;
37445;SDS011;23307;51.136;14.942;2023-04-12T07:23:14;4.93;;;3.00;;
37445;SDS011;23307;51.136;14.942;2023-04-12T07:25:40;5.67;;;2.97;;
37445;SDS011;23307;51.136;14.942;2023-04-12T07:28:06;5.13;;;2.97;;
37445;SDS011;23307;51.136;14.942;2023-04-12T07:30:31;5.20;;;2.97;;
37445;SDS011;23307;51.136;14.942;2023-04-12T07:32:57;5.40;;;2.97;;
37445;SDS011;23307;51.136;14.942;2023-04-12T07:35:24;4.53;;;3.13;;
37445;SDS011;23307;51.136;14.942;2023-04-12T07:37:51;5.22;;;2.92;;
37445;SDS011;23307;51.136;14.942;2023-04-12T07:40:17;3.83;;;2.65;;
37445;SDS011;23307;51.136;14.942;2023-04-12T07:42:42;3.75;;;2.70;;
37445;SDS011;23307;51.136;14.942;2023-04-12T07:45:08;4.78;;;2.70;;
37445;SDS011;23307;51.136;14.942;2023-04-12T07:47:34;5.65;;;2.97;;
37445;SDS011;23307;51.136;14.942;2023-04-12T07:50:00;6.53;;;2.65;;
37445;SDS011;23307;51.136;14.942;2023-04-12T07:52:25;6.97;;;2.67;;
37445;SDS011;23307;51.136;14.942;2023-04-12T07:54:51;6.28;;;2.80;;
37445;SDS011;23307;51.136;14.942;2023-04-12T07:57:16;5.93;;;2.63;;
37445;SDS011;23307;51.136;14.942;2023-04-12T07:59:42;7.63;;;2.65;;
37445;SDS011;23307;51.136;14.942;2023-04-12T08:02:07;4.85;;;2.72;;
37445;SDS011;23307;51.136;14.942;2023-04-12T08:04:33;3.25;;;2.45;;
37445;SDS011;23307;51.136;14.942;2023-04-12T08:06:58;3.38;;;1.67;;
37445;SDS011;23307;51.136;14.942;2023-04-12T08:09:24;5.80;;;2.42;;
37445;SDS011;23307;51.136;14.942;2023-04-12T08:11:49;4.40;;;1.80;;
37445;SDS011;23307;51.136;14.942;2023-04-12T08:14:15;4.00;;;1.83;;
37445;SDS011;23307;51.136;14.942;2023-04-12T08:16:42;4.90;;;2.10;;
37445;SDS011;23307;51.136;14.942;2023-04-12T08:19:07;5.72;;;2.28;;
37445;SDS011;23307;51.136;14.942;2023-04-12T08:21:33;5.38;;;2.30;;
37445;SDS011;23307;51.136;14.942;2023-04-12T08:23:59;3.03;;;2.00;;
37445;SDS011;23307;51.136;14.942;2023-04-12T08:26:24;5.18;;;2.13;;
37445;SDS011;23307;51.136;14.942;2023-04-12T08:28:54;3.65;;;2.00;;
37445;SDS011;23307;51.136;14.942;2023-04-12T08:31:21;4.70;;;2.30;;
37445;SDS011;23307;51.136;14.942;2023-04-12T08:33:46;6.97;;;2.70;;
37445;SDS011;23307;51.136;14.942;2023-04-12T08:36:12;5.53;;;2.38;;
37445;SDS011;23307;51.136;14.942;2023-04-12T08:38:37;4.57;;;1.98;;
37445;SDS011;23307;51.136;14.942;2023-04-12T08:41:03;3.58;;;2.25;;
37445;SDS011;23307;51.136;14.942;2023-04-12T08:43:29;4.15;;;2.55;;
37445;SDS011;23307;51.136;14.942;2023-04-12T08:45:57;6.78;;;2.58;;
37445;SDS011;23307;51.136;14.942;2023-04-12T08:48:23;6.60;;;2.80;;
37445;SDS011;23307;51.136;14.942;2023-04-12T08:50:49;9.05;;;2.95;;
37445;SDS011;23307;51.136;14.942;2023-04-12T08:53:16;7.47;;;3.20;;
37445;SDS011;23307;51.136;14.942;2023-04-12T08:55:44;5.70;;;3.33;;
37445;SDS011;23307;51.136;14.942;2023-04-12T08:58:12;8.02;;;2.78;;
37445;SDS011;23307;51.136;14.942;2023-04-12T09:00:39;6.43;;;2.65;;
37445;SDS011;23307;51.136;14.942;2023-04-12T09:03:06;7.82;;;2.55;;
37445;SDS011;23307;51.136;14.942;2023-04-12T09:05:34;4.35;;;2.20;;
37445;SDS011;23307;51.136;14.942;2023-04-12T09:07:59;4.90;;;2.83;;
37445;SDS011;23307;51.136;14.942;2023-04-12T09:10:29;3.85;;;2.83;;
37445;SDS011;23307;51.136;14.942;2023-04-12T09:12:57;6.40;;;2.80;;
37445;SDS011;23307;51.136;14.942;2023-04-12T09:15:23;6.20;;;2.50;;
37445;SDS011;23307;51.136;14.942;2023-04-12T09:17:58;4.43;;;2.33;;
37445;SDS011;23307;51.136;14.942;2023-04-12T09:20:31;7.47;;;2.88;;
37445;SDS011;23307;51.136;14.942;2023-04-12T09:22:57;4.00;;;2.30;;
37445;SDS011;23307;51.136;14.942;2023-04-12T09:25:34;5.00;;;2.47;;
37445;SDS011;23307;51.136;14.942;2023-04-12T09:28:01;3.75;;;2.30;;
37445;SDS011;23307;51.136;14.942;2023-04-12T09:30:28;4.47;;;2.28;;
37445;SDS011;23307;51.136;14.942;2023-04-12T09:32:53;5.32;;;2.40;;
37445;SDS011;23307;51.136;14.942;2023-04-12T09:35:32;5.28;;;1.83;;
37445;SDS011;23307;51.136;14.942;2023-04-12T09:38:05;4.38;;;1.70;;
37445;SDS011;23307;51.136;14.942;2023-04-12T09:40:32;4.55;;;1.92;;
37445;SDS011;23307;51.136;14.942;2023-04-12T09:43:00;3.50;;;1.50;;
37445;SDS011;23307;51.136;14.942;2023-04-12T09:45:27;4.80;;;2.30;;
37445;SDS011;23307;51.136;14.942;2023-04-12T09:47:55;4.65;;;2.63;;
37445;SDS011;23307;51.136;14.942;2023-04-12T09:50:21;7.70;;;2.47;;
37445;SDS011;23307;51.136;14.942;2023-04-12T09:52:48;3.22;;;2.00;;
37445;SDS011;23307;51.136;14.942;2023-04-12T09:55:14;5.47;;;2.15;;
37445;SDS011;23307;51.136;14.942;2023-04-12T09:57:41;5.82;;;2.00;;
37445;SDS011;23307;51.136;14.942;2023-04-12T10:00:08;5.43;;;2.03;;
37445;SDS011;23307;51.136;14.942;2023-04-12T10:02:42;4.35;;;2.10;;
37445;SDS011;23307;51.136;14.942;2023-04-12T10:05:09;4.82;;;2.00;;
37445;SDS011;23307;51.136;14.942;2023-04-12T10:07:38;4.25;;;1.90;;
37445;SDS011;23307;51.136;14.942;2023-04-12T10:10:08;3.60;;;2.15;;
37445;SDS011;23307;51.136;14.942;2023-04-12T10:12:36;4.30;;;2.08;;
37445;SDS011;23307;51.136;14.942;2023-04-12T10:15:03;5.95;;;1.63;;
37445;SDS011;23307;51.136;14.942;2023-04-12T10:17:38;3.08;;;1.70;;
37445;SDS011;23307;51.136;14.942;2023-04-12T10:20:07;3.25;;;1.75;;
37445;SDS011;23307;51.136;14.942;2023-04-12T10:22:34;4.30;;;1.55;;
37445;SDS011;23307;51.136;14.942;2023-04-12T10:25:00;3.65;;;2.03;;
37445;SDS011;23307;51.136;14.942;2023-04-12T10:27:26;3.45;;;1.70;;
37445;SDS011;23307;51.136;14.942;2023-04-12T10:29:52;3.88;;;1.75;;
37445;SDS011;23307;51.136;14.942;2023-04-12T10:32:21;4.63;;;2.00;;
37445;SDS011;23307;51.136;14.942;2023-04-12T10:34:49;5.53;;;1.90;;
37445;SDS011;23307;51.136;14.942;2023-04-12T10:40:23;2.72;;;1.60;;
37445;SDS011;23307;51.136;14.942;2023-04-12T10:42:48;6.18;;;2.08;;
37445;SDS011;23307;51.136;14.942;2023-04-12T10:45:43;3.45;;;1.80;;
37445;SDS011;23307;51.136;14.942;2023-04-12T10:51:17;3.63;;;1.73;;
37445;SDS011;23307;51.136;14.942;2023-04-12T10:53:49;6.20;;;2.10;;
37445;SDS011;23307;51.136;14.942;2023-04-12T10:58:54;5.13;;;2.13;;
37445;SDS011;23307;51.136;14.942;2023-04-12T11:01:20;3.13;;;1.70;;
37445;SDS011;23307;51.136;14.942;2023-04-12T11:06:49;3.92;;;1.88;;
37445;SDS011;23307;51.136;14.942;2023-04-12T11:11:49;3.67;;;1.80;;
37445;SDS011;23307;51.136;14.942;2023-04-12T11:14:16;4.50;;;2.50;;
37445;SDS011;23307;51.136;14.942;2023-04-12T11:19:30;3.88;;;2.20;;
37445;SDS011;23307;51.136;14.942;2023-04-12T11:21:56;4.40;;;2.00;;
37445;SDS011;23307;51.136;14.942;2023-04-12T11:24:23;3.50;;;2.00;;
37445;SDS011;23307;51.136;14.942;2023-04-12T11:26:50;3.58;;;1.80;;
37445;SDS011;23307;51.136;14.942;2023-04-12T11:29:21;4.88;;;2.03;;
37445;SDS011;23307;51.136;14.942;2023-04-12T11:31:51;5.57;;;2.10;;
37445;SDS011;23307;51.136;14.942;2023-04-12T11:34:17;6.55;;;2.30;;
37445;SDS011;23307;51.136;14.942;2023-04-12T11:36:50;5.10;;;1.60;;
37445;SDS011;23307;51.136;14.942;2023-04-12T11:39:17;3.88;;;1.92;;
37445;SDS011;23307;51.136;14.942;2023-04-12T11:41:46;5.72;;;1.77;;
37445;SDS011;23307;51.136;14.942;2023-04-12T11:44:13;3.55;;;1.75;;
37445;SDS011;23307;51.136;14.942;2023-04-12T11:46:42;3.10;;;1.90;;
37445;SDS011;23307;51.136;14.942;2023-04-12T11:49:07;4.03;;;2.30;;
37445;SDS011;23307;51.136;14.942;2023-04-12T11:51:33;2.92;;;1.75;;
37445;SDS011;23307;51.136;14.942;2023-04-12T11:53:59;3.35;;;1.98;;
37445;SDS011;23307;51.136;14.942;2023-04-12T11:56:25;4.95;;;1.80;;
37445;SDS011;23307;51.136;14.942;2023-04-12T11:58:52;6.05;;;1.60;;
37445;SDS011;23307;51.136;14.942;2023-04-12T12:01:18;4.35;;;1.90;;
37445;SDS011;23307;51.136;14.942;2023-04-12T12:03:44;4.47;;;1.83;;
37445;SDS011;23307;51.136;14.942;2023-04-12T12:06:11;4.28;;;1.95;;
37445;SDS011;23307;51.136;14.942;2023-04-12T12:08:38;3.85;;;1.70;;
37445;SDS011;23307;51.136;14.942;2023-04-12T12:11:04;4.65;;;1.73;;
37445;SDS011;23307;51.136;14.942;2023-04-12T12:13:46;4.07;;;1.75;;
37445;SDS011;23307;51.136;14.942;2023-04-12T12:16:12;3.95;;;1.75;;
37445;SDS011;23307;51.136;14.942;2023-04-12T12:18:39;2.30;;;1.50;;
37445;SDS011;23307;51.136;14.942;2023-04-12T12:21:07;4.10;;;1.77;;
37445;SDS011;23307;51.136;14.942;2023-04-12T12:23:34;4.18;;;2.13;;
37445;SDS011;23307;51.136;14.942;2023-04-12T12:26:00;4.20;;;2.05;;
37445;SDS011;23307;51.136;14.942;2023-04-12T12:28:35;4.03;;;2.42;;
37445;SDS011;23307;51.136;14.942;2023-04-12T12:31:07;4.80;;;2.20;;
37445;SDS011;23307;51.136;14.942;2023-04-12T12:33:37;3.97;;;2.10;;
37445;SDS011;23307;51.136;14.942;2023-04-12T12:36:04;3.85;;;1.92;;
37445;SDS011;23307;51.136;14.942;2023-04-12T12:38:36;5.20;;;2.05;;
37445;SDS011;23307;51.136;14.942;2023-04-12T12:41:19;2.20;;;1.80;;
37445;SDS011;23307;51.136;14.942;2023-04-12T12:43:45;6.00;;;2.30;;
37445;SDS011;23307;51.136;14.942;2023-04-12T12:46:11;6.28;;;2.40;;
37445;SDS011;23307;51.136;14.942;2023-04-12T12:48:38;3.92;;;1.83;;
37445;SDS011;23307;51.136;14.942;2023-04-12T12:51:07;3.65;;;2.00;;
37445;SDS011;23307;51.136;14.942;2023-04-12T12:53:34;2.70;;;2.20;;
37445;SDS011;23307;51.136;14.942;2023-04-12T12:56:00;6.72;;;2.25;;
37445;SDS011;23307;51.136;14.942;2023-04-12T12:58:26;3.75;;;1.95;;
37445;SDS011;23307;51.136;14.942;2023-04-12T13:00:52;2.67;;;1.90;;
37445;SDS011;23307;51.136;14.942;2023-04-12T13:03:18;4.45;;;2.00;;
37445;SDS011;23307;51.136;14.942;2023-04-12T13:05:44;3.67;;;1.70;;
37445;SDS011;23307;51.136;14.942;2023-04-12T13:08:10;2.38;;;1.98;;
37445;SDS011;23307;51.136;14.942;2023-04-12T13:10:35;3.17;;;2.00;;
37445;SDS011;23307;51.136;14.942;2023-04-12T13:13:01;2.90;;;1.83;;
37445;SDS011;23307;51.136;14.942;2023-04-12T13:15:27;3.72;;;2.20;;
37445;SDS011;23307;51.136;14.942;2023-04-12T13:17:52;4.63;;;2.05;;
37445;SDS011;23307;51.136;14.942;2023-04-12T13:20:19;4.30;;;2.25;;
37445;SDS011;23307;51.136;14.942;2023-04-12T13:22:44;3.00;;;2.00;;
37445;SDS011;23307;51.136;14.942;2023-04-12T13:25:10;3.10;;;2.03;;
37445;SDS011;23307;51.136;14.942;2023-04-12T13:27:35;4.10;;;2.15;;
37445;SDS011;23307;51.136;14.942;2023-04-12T13:30:02;5.68;;;2.22;;
37445;SDS011;23307;51.136;14.942;2023-04-12T13:32:28;5.43;;;2.42;;
37445;SDS011;23307;51.136;14.942;2023-04-12T13:34:54;5.32;;;2.30;;
37445;SDS011;23307;51.136;14.942;2023-04-12T13:37:19;5.57;;;1.88;;
37445;SDS011;23307;51.136;14.942;2023-04-12T13:39:45;3.45;;;2.20;;
37445;SDS011;23307;51.136;14.942;2023-04-12T13:42:10;4.30;;;2.42;;
37445;SDS011;23307;51.136;14.942;2023-04-12T13:44:36;2.78;;;2.08;;
37445;SDS011;23307;51.136;14.942;2023-04-12T13:47:02;3.30;;;2.20;;
37445;SDS011;23307;51.136;14.942;2023-04-12T13:49:27;5.38;;;2.70;;
37445;SDS011;23307;51.136;14.942;2023-04-12T13:51:54;5.13;;;2.50;;
37445;SDS011;23307;51.136;14.942;2023-04-12T13:54:20;3.70;;;2.13;;
37445;SDS011;23307;51.136;14.942;2023-04-12T13:56:46;4.57;;;2.65;;
37445;SDS011;23307;51.136;14.942;2023-04-12T13:59:12;5.13;;;2.53;;
37445;SDS011;23307;51.136;14.942;2023-04-12T14:01:38;6.00;;;2.55;;
37445;SDS011;23307;51.136;14.942;2023-04-12T14:04:03;4.32;;;2.30;;
37445;SDS011;23307;51.136;14.942;2023-04-12T14:06:30;3.88;;;2.45;;
37445;SDS011;23307;51.136;14.942;2023-04-12T14:08:56;5.78;;;2.40;;
37445;SDS011;23307;51.136;14.942;2023-04-12T14:11:22;4.07;;;2.50;;
37445;SDS011;23307;51.136;14.942;2023-04-12T14:13:48;4.30;;;2.80;;
37445;SDS011;23307;51.136;14.942;2023-04-12T14:16:14;5.45;;;2.95;;
37445;SDS011;23307;51.136;14.942;2023-04-12T14:18:40;3.88;;;3.13;;
37445;SDS011;23307;51.136;14.942;2023-04-12T14:21:07;4.80;;;3.17;;
37445;SDS011;23307;51.136;14.942;2023-04-12T14:23:33;5.47;;;3.40;;
37445;SDS011;23307;51.136;14.942;2023-04-12T14:25:59;4.10;;;3.20;;
37445;SDS011;23307;51.136;14.942;2023-04-12T14:28:25;3.90;;;3.40;;
37445;SDS011;23307;51.136;14.942;2023-04-12T14:30:55;4.95;;;3.70;;
37445;SDS011;23307;51.136;14.942;2023-04-12T14:33:22;5.30;;;3.40;;
37445;SDS011;23307;51.136;14.942;2023-04-12T14:35:48;5.57;;;3.55;;
37445;SDS011;23307;51.136;14.942;2023-04-12T14:38:14;5.80;;;3.42;;
37445;SDS011;23307;51.136;14.942;2023-04-12T14:40:40;6.82;;;3.70;;
37445;SDS011;23307;51.136;14.942;2023-04-12T14:43:05;5.57;;;3.65;;
37445;SDS011;23307;51.136;14.942;2023-04-12T14:45:31;4.30;;;3.70;;
37445;SDS011;23307;51.136;14.942;2023-04-12T14:47:57;4.72;;;3.65;;
37445;SDS011;23307;51.136;14.942;2023-04-12T14:50:22;5.72;;;3.30;;
37445;SDS011;23307;51.136;14.942;2023-04-12T14:52:48;6.00;;;3.38;;